createdAt,value
2023-04-17T00:00:33.711Z,0.30
2023-04-17T00:03:35.772Z,0.40
2023-04-17T00:06:39.186Z,0.77
2023-04-17T00:09:41.302Z,3.13
2023-04-17T00:12:43.452Z,0.30
2023-04-17T00:15:45.930Z,0.60
2023-04-17T00:18:48.088Z,0.63
2023-04-17T00:21:50.046Z,0.50
2023-04-17T00:24:51.981Z,0.60
2023-04-17T00:27:54.018Z,0.50
2023-04-17T00:30:57.039Z,0.33
2023-04-17T00:33:59.434Z,0.60
2023-04-17T00:37:01.517Z,0.30
2023-04-17T00:40:03.826Z,0.30
2023-04-17T00:43:07.045Z,0.70
2023-04-17T00:46:09.624Z,0.27
2023-04-17T00:49:12.375Z,0.30
2023-04-17T00:52:17.184Z,0.50
2023-04-17T00:55:19.695Z,0.40
2023-04-17T00:58:22.591Z,0.73
2023-04-17T01:01:24.574Z,0.70
2023-04-17T01:04:27.044Z,0.70
2023-04-17T01:07:31.252Z,0.30
2023-04-17T01:10:33.148Z,0.87
2023-04-17T01:13:35.478Z,0.50
2023-04-17T01:16:39.519Z,1.43
2023-04-17T01:19:42.197Z,0.40
2023-04-17T01:22:44.174Z,0.70
2023-04-17T01:25:46.767Z,0.87
2023-04-17T01:29:00.020Z,0.70
2023-04-17T01:32:02.188Z,0.40
2023-04-17T01:35:04.631Z,0.97
2023-04-17T01:38:06.688Z,1.53
2023-04-17T01:41:10.418Z,3.13
2023-04-17T01:44:12.405Z,0.50
2023-04-17T01:47:14.380Z,0.60
2023-04-17T01:50:16.518Z,0.50
2023-04-17T01:53:18.472Z,0.67
2023-04-17T01:56:20.938Z,1.00
2023-04-17T01:59:23.398Z,0.50
2023-04-17T02:02:25.766Z,0.60
2023-04-17T02:05:27.781Z,0.83
2023-04-17T02:08:30.329Z,0.90
2023-04-17T02:11:32.321Z,0.67
2023-04-17T02:14:34.283Z,0.43
2023-04-17T02:17:36.289Z,0.83
2023-04-17T02:20:38.739Z,0.50
2023-04-17T02:23:41.468Z,0.40
2023-04-17T02:26:43.654Z,0.40
2023-04-17T02:29:45.607Z,0.50
2023-04-17T02:32:47.672Z,0.90
2023-04-17T02:35:49.643Z,0.40
2023-04-17T02:38:51.761Z,2.70
2023-04-17T02:41:53.733Z,1.47
2023-04-17T02:44:56.688Z,0.40
2023-04-17T02:47:58.914Z,0.70
2023-04-17T02:51:00.963Z,1.27
2023-04-17T02:54:02.933Z,0.57
2023-04-17T02:57:05.834Z,0.70
2023-04-17T03:00:15.112Z,2.23
2023-04-17T03:03:17.380Z,0.53
2023-04-17T03:06:19.662Z,0.37
2023-04-17T03:09:22.713Z,0.50
2023-04-17T03:12:24.896Z,1.13
2023-04-17T03:15:27.460Z,0.50
2023-04-17T03:18:29.510Z,0.43
2023-04-17T03:21:31.860Z,0.53
2023-04-17T03:24:34.105Z,0.60
2023-04-17T03:27:36.670Z,0.60
2023-04-17T03:30:38.616Z,0.70
2023-04-17T03:33:41.185Z,0.63
2023-04-17T03:36:43.092Z,0.80
2023-04-17T03:39:45.070Z,1.50
2023-04-17T03:42:47.620Z,2.90
2023-04-17T03:45:49.854Z,1.73
2023-04-17T03:48:51.875Z,1.60
2023-04-17T03:51:54.249Z,1.30
2023-04-17T03:54:56.204Z,4.90
2023-04-17T03:57:58.242Z,1.67
2023-04-17T04:01:02.495Z,3.53
2023-04-17T04:04:05.213Z,3.30
2023-04-17T04:07:07.281Z,4.57
2023-04-17T04:10:10.125Z,2.23
2023-04-17T04:13:13.194Z,1.67
2023-04-17T04:16:15.984Z,0.87
2023-04-17T04:19:17.902Z,1.00
2023-04-17T04:22:21.557Z,1.40
2023-04-17T04:25:26.883Z,1.43
2023-04-17T04:28:31.238Z,1.70
2023-04-17T04:31:33.369Z,1.10
2023-04-17T04:34:36.768Z,3.87
2023-04-17T04:37:38.765Z,1.20
2023-04-17T04:40:44.313Z,1.37
2023-04-17T04:43:46.225Z,2.20
2023-04-17T04:46:48.249Z,3.57
2023-04-17T04:49:50.227Z,1.73
2023-04-17T04:52:52.256Z,1.63
2023-04-17T04:55:54.170Z,1.83
2023-04-17T04:58:56.689Z,1.73
2023-04-17T05:01:58.701Z,1.87
2023-04-17T05:05:01.059Z,1.33
2023-04-17T05:08:04.087Z,1.67
2023-04-17T05:11:07.199Z,3.03
2023-04-17T05:14:09.230Z,1.20
2023-04-17T05:17:12.151Z,1.80
2023-04-17T05:20:15.731Z,1.60
2023-04-17T05:23:21.290Z,1.77
2023-04-17T05:26:26.529Z,1.27
2023-04-17T05:29:35.326Z,1.50
2023-04-17T05:32:38.640Z,2.63
2023-04-17T05:35:41.190Z,1.20
2023-04-17T05:38:45.525Z,1.20
2023-04-17T05:41:48.552Z,1.10
2023-04-17T05:44:50.598Z,1.60
2023-04-17T05:47:52.646Z,2.30
2023-04-17T05:50:54.693Z,1.40
2023-04-17T05:53:57.002Z,1.40
2023-04-17T05:56:58.938Z,1.80
2023-04-17T06:00:00.998Z,2.47
2023-04-17T06:03:03.298Z,1.30
2023-04-17T06:06:05.917Z,1.47
2023-04-17T06:09:09.429Z,1.40
2023-04-17T06:12:16.575Z,1.10
2023-04-17T06:15:18.603Z,0.73
2023-04-17T06:18:20.654Z,2.00
2023-04-17T06:21:22.688Z,1.50
2023-04-17T06:24:24.674Z,1.40
2023-04-17T06:27:26.556Z,1.97
2023-04-17T06:30:28.927Z,1.43
2023-04-17T06:33:31.040Z,1.30
2023-04-17T06:36:33.635Z,1.37
2023-04-17T06:39:35.543Z,1.57
2023-04-17T06:42:37.663Z,1.90
2023-04-17T06:45:42.595Z,2.27
2023-04-17T06:48:44.679Z,1.90
2023-04-17T06:51:47.563Z,1.80
2023-04-17T06:54:49.571Z,1.63
2023-04-17T06:57:51.586Z,5.70
2023-04-17T07:00:53.625Z,2.10
2023-04-17T07:03:55.649Z,2.20
2023-04-17T07:06:58.925Z,1.87
2023-04-17T07:10:00.869Z,3.03
2023-04-17T07:13:03.699Z,2.50
2023-04-17T07:16:06.524Z,2.70
2023-04-17T07:19:08.889Z,8.20
2023-04-17T07:22:10.844Z,3.87
2023-04-17T07:25:13.757Z,4.63
2023-04-17T07:28:16.104Z,2.67
2023-04-17T07:31:18.615Z,2.73
2023-04-17T07:34:20.649Z,3.23
2023-04-17T07:37:23.352Z,4.50
2023-04-17T07:40:25.344Z,3.47
2023-04-17T07:43:27.930Z,2.40
2023-04-17T07:46:30.159Z,2.23
2023-04-17T07:49:32.704Z,3.93
2023-04-17T07:52:34.727Z,1.70
2023-04-17T07:55:36.782Z,1.63
2023-04-17T07:58:38.801Z,1.83
2023-04-17T08:01:42.196Z,2.07
2023-04-17T08:04:45.298Z,1.40
2023-04-17T08:07:48.000Z,1.70
2023-04-17T08:10:50.990Z,1.40
2023-04-17T08:13:56.649Z,1.10
2023-04-17T08:16:58.645Z,0.97
2023-04-17T08:20:02.616Z,1.10
2023-04-17T08:23:05.410Z,1.63
2023-04-17T08:26:07.481Z,1.20
2023-04-17T08:29:10.409Z,3.97
2023-04-17T08:32:14.585Z,1.20
2023-04-17T08:35:17.816Z,1.07
2023-04-17T08:38:20.555Z,4.27
2023-04-17T08:41:26.063Z,1.03
2023-04-17T08:44:28.043Z,1.10
2023-04-17T08:47:30.796Z,1.53
2023-04-17T08:50:34.354Z,1.03
2023-04-17T08:53:36.356Z,3.27
2023-04-17T08:56:39.363Z,1.70
2023-04-17T08:59:45.874Z,0.90
2023-04-17T09:02:55.825Z,1.67
2023-04-17T09:05:58.414Z,1.50
2023-04-17T09:09:05.752Z,1.43
2023-04-17T09:12:11.364Z,1.63
2023-04-17T09:15:16.970Z,1.33
2023-04-17T09:18:32.974Z,1.30
2023-04-17T09:21:34.917Z,0.90
2023-04-17T09:24:38.014Z,1.20
2023-04-17T09:27:39.971Z,1.23
2023-04-17T09:30:42.736Z,2.70
2023-04-17T09:34:14.032Z,1.53
2023-04-17T09:37:16.605Z,1.60
2023-04-17T09:40:21.291Z,1.40
2023-04-17T09:43:24.065Z,2.63
2023-04-17T09:46:39.800Z,2.00
2023-04-17T09:49:43.667Z,2.53
2023-04-17T09:52:47.333Z,1.43
2023-04-17T09:55:49.562Z,1.60
2023-04-17T09:58:52.311Z,4.10
2023-04-17T10:01:54.550Z,1.33
2023-04-17T10:04:57.566Z,1.17
2023-04-17T10:07:59.700Z,1.33
2023-04-17T10:11:08.270Z,2.73
2023-04-17T10:14:26.466Z,1.60
2023-04-17T10:17:32.091Z,1.60
2023-04-17T10:20:36.055Z,2.00
2023-04-17T10:23:38.442Z,4.60
2023-04-17T10:26:40.685Z,2.37
2023-04-17T10:29:59.574Z,2.97
2023-04-17T10:33:13.939Z,2.47
2023-04-17T10:36:41.435Z,2.53
2023-04-17T10:39:52.054Z,2.80
2023-04-17T10:43:23.213Z,2.57
2023-04-17T10:46:26.725Z,2.00
2023-04-17T10:49:29.105Z,2.03
2023-04-17T10:52:40.590Z,1.70
2023-04-17T10:55:52.497Z,3.30
2023-04-17T10:58:59.882Z,2.43
2023-04-17T11:02:05.158Z,2.00
2023-04-17T11:05:08.033Z,2.10
2023-04-17T11:08:10.631Z,1.83
2023-04-17T11:11:12.543Z,1.93
2023-04-17T11:14:18.273Z,3.30
2023-04-17T11:17:22.675Z,1.70
2023-04-17T11:20:31.144Z,1.97
2023-04-17T11:23:34.219Z,1.40
2023-04-17T11:26:46.954Z,1.03
2023-04-17T11:29:48.832Z,1.70
2023-04-17T11:32:50.991Z,1.33
2023-04-17T11:35:54.570Z,2.20
2023-04-17T11:38:58.297Z,1.40
2023-04-17T11:42:07.197Z,2.57
2023-04-17T11:45:10.896Z,1.50
2023-04-17T11:48:14.653Z,1.70
2023-04-17T11:51:19.156Z,1.40
2023-04-17T11:54:35.466Z,2.23
2023-04-17T11:57:46.952Z,2.20
2023-04-17T12:01:05.219Z,1.60
2023-04-17T12:04:20.368Z,1.87
2023-04-17T12:07:25.201Z,2.30
2023-04-17T12:10:39.606Z,1.93
2023-04-17T12:13:41.549Z,2.90
2023-04-17T12:16:43.692Z,2.67
2023-04-17T12:19:47.018Z,1.83
2023-04-17T12:22:48.996Z,2.30
2023-04-17T12:25:50.992Z,2.23
2023-04-17T12:28:53.059Z,2.10
2023-04-17T12:31:54.941Z,1.70
2023-04-17T12:34:58.256Z,2.10
2023-04-17T12:38:00.238Z,2.10
2023-04-17T12:41:02.220Z,2.07
2023-04-17T12:44:04.097Z,3.13
2023-04-17T12:47:06.566Z,1.70
2023-04-17T12:50:09.559Z,2.00
2023-04-17T12:53:14.079Z,1.83
2023-04-17T12:56:16.286Z,1.63
2023-04-17T12:59:18.342Z,2.67
2023-04-17T13:02:23.236Z,2.00
2023-04-17T13:05:25.336Z,1.60
2023-04-17T13:08:28.322Z,1.87
2023-04-17T13:11:30.705Z,3.07
2023-04-17T13:14:32.700Z,2.70
2023-04-17T13:17:34.674Z,1.97
2023-04-17T13:20:36.702Z,2.13
2023-04-17T13:23:39.224Z,2.57
2023-04-17T13:26:42.947Z,2.23
2023-04-17T13:29:45.001Z,1.60
2023-04-17T13:32:46.976Z,1.90
2023-04-17T13:35:51.476Z,1.70
2023-04-17T13:38:53.504Z,1.70
2023-04-17T13:41:57.720Z,2.00
2023-04-17T13:44:59.622Z,2.00
2023-04-17T13:48:01.975Z,1.97
2023-04-17T13:51:04.263Z,2.00
2023-04-17T13:54:06.911Z,3.70
2023-04-17T13:57:09.817Z,1.60
2023-04-17T14:00:12.605Z,4.10
2023-04-17T14:03:14.712Z,2.07
2023-04-17T14:06:20.090Z,3.00
2023-04-17T14:09:21.993Z,2.10
2023-04-17T14:12:24.022Z,2.53
2023-04-17T14:15:26.607Z,3.07
2023-04-17T14:18:28.857Z,1.50
2023-04-17T14:21:30.790Z,3.20
2023-04-17T14:24:32.862Z,1.80
2023-04-17T14:27:36.567Z,2.33
2023-04-17T14:30:39.222Z,2.87
2023-04-17T14:33:41.193Z,2.20
2023-04-17T14:36:43.835Z,2.43
2023-04-17T14:39:45.758Z,1.87
2023-04-17T14:42:54.101Z,2.10
2023-04-17T14:45:56.294Z,2.47
2023-04-17T14:48:58.713Z,1.83
2023-04-17T14:52:00.605Z,1.20
2023-04-17T14:55:02.537Z,1.50
2023-04-17T14:58:04.541Z,2.27
2023-04-17T15:01:06.550Z,1.77
2023-04-17T15:04:08.750Z,3.57
2023-04-17T15:07:10.978Z,1.80
2023-04-17T15:10:13.192Z,1.70
2023-04-17T15:13:15.121Z,1.97
2023-04-17T15:16:17.147Z,2.10
2023-04-17T15:19:19.099Z,2.00
2023-04-17T15:22:20.983Z,2.33
2023-04-17T15:25:24.087Z,2.10
2023-04-17T15:28:26.095Z,2.20
2023-04-17T15:31:28.656Z,2.23
2023-04-17T15:34:30.620Z,2.87
2023-04-17T15:37:32.998Z,1.63
2023-04-17T15:40:35.007Z,2.40
2023-04-17T15:43:38.559Z,1.87
2023-04-17T15:46:40.628Z,1.70
2023-04-17T15:49:43.657Z,2.07
2023-04-17T15:52:46.061Z,2.03
2023-04-17T15:55:48.108Z,2.37
2023-04-17T15:58:50.014Z,2.00
2023-04-17T16:01:53.549Z,2.53
2023-04-17T16:04:55.582Z,3.07
2023-04-17T16:07:58.120Z,1.70
2023-04-17T16:10:59.987Z,2.20
2023-04-17T16:14:02.181Z,1.87
2023-04-17T16:17:04.854Z,2.10
2023-04-17T16:20:07.430Z,3.60
2023-04-17T16:23:10.951Z,4.40
2023-04-17T16:26:14.550Z,3.63
2023-04-17T16:29:16.489Z,2.60
2023-04-17T16:32:20.683Z,2.13
2023-04-17T16:35:23.265Z,2.33
2023-04-17T16:38:25.515Z,2.77
2023-04-17T16:41:27.964Z,2.30
2023-04-17T16:44:31.582Z,2.60
2023-04-17T16:47:33.664Z,3.13
2023-04-17T16:50:36.123Z,2.07
2023-04-17T16:53:37.991Z,2.50
2023-04-17T16:56:40.393Z,3.63
2023-04-17T16:59:42.247Z,3.83
2023-04-17T17:02:44.515Z,2.53
2023-04-17T17:05:46.467Z,2.43
2023-04-17T17:08:48.433Z,2.40
2023-04-17T17:11:50.409Z,2.07
2023-04-17T17:14:52.414Z,2.47
2023-04-17T17:17:54.289Z,2.23
2023-04-17T17:20:58.055Z,3.03
2023-04-17T17:24:00.726Z,4.27
2023-04-17T17:27:02.896Z,2.83
2023-04-17T17:30:05.481Z,2.50
2023-04-17T17:33:07.654Z,2.40
2023-04-17T17:36:10.478Z,2.80
2023-04-17T17:39:12.791Z,2.37
2023-04-17T17:42:14.857Z,2.80
2023-04-17T17:45:16.874Z,2.70
2023-04-17T17:48:20.589Z,2.30
2023-04-17T17:51:26.052Z,2.20
2023-04-17T17:54:27.911Z,2.80
2023-04-17T17:57:38.636Z,3.07
2023-04-17T18:00:50.541Z,2.83
2023-04-17T18:03:53.487Z,3.03
2023-04-17T18:06:55.604Z,2.47
2023-04-17T18:09:58.479Z,3.20
2023-04-17T18:13:00.871Z,2.73
2023-04-17T18:16:04.665Z,2.43
2023-04-17T18:19:06.932Z,2.83
2023-04-17T18:22:09.471Z,2.40
2023-04-17T18:25:11.687Z,3.30
2023-04-17T18:28:14.195Z,2.90
2023-04-17T18:31:18.487Z,2.50
2023-04-17T18:34:23.629Z,2.80
2023-04-17T18:37:31.263Z,3.20
2023-04-17T18:40:33.660Z,2.50
2023-04-17T18:43:35.893Z,2.97
2023-04-17T18:46:37.891Z,5.17
2023-04-17T18:49:41.706Z,3.47
2023-04-17T18:52:47.630Z,3.23
2023-04-17T18:55:52.732Z,3.60
2023-04-17T18:58:55.147Z,4.80
2023-04-17T19:01:57.077Z,3.00
2023-04-17T19:04:59.171Z,3.80
2023-04-17T19:08:01.128Z,3.73
2023-04-17T19:11:03.570Z,2.93
2023-04-17T19:14:05.424Z,3.73
2023-04-17T19:17:07.473Z,3.53
2023-04-17T19:20:09.792Z,3.13
2023-04-17T19:23:11.822Z,3.47
2023-04-17T19:26:15.887Z,3.40
2023-04-17T19:29:18.154Z,2.63
2023-04-17T19:32:20.006Z,6.63
2023-04-17T19:35:22.217Z,5.40
2023-04-17T19:38:25.452Z,3.93
2023-04-17T19:41:28.437Z,3.53
2023-04-17T19:44:30.765Z,4.33
2023-04-17T19:47:32.743Z,6.53
2023-04-17T19:50:34.689Z,4.43
2023-04-17T19:53:38.876Z,3.93
2023-04-17T19:56:41.021Z,3.43
2023-04-17T19:59:42.968Z,3.03
2023-04-17T20:02:45.140Z,3.23
2023-04-17T20:05:48.942Z,3.23
2023-04-17T20:08:51.446Z,3.60
2023-04-17T20:11:53.407Z,3.30
2023-04-17T20:14:55.347Z,3.00
2023-04-17T20:17:57.397Z,3.43
2023-04-17T20:21:03.094Z,3.80
2023-04-17T20:24:05.575Z,4.07
2023-04-17T20:27:07.638Z,4.50
2023-04-17T20:30:11.255Z,3.70
2023-04-17T20:33:14.047Z,3.47
2023-04-17T20:36:16.916Z,2.93
2023-04-17T20:39:22.049Z,4.30
2023-04-17T20:42:23.992Z,5.07
2023-04-17T20:45:25.988Z,4.20
2023-04-17T20:48:28.103Z,4.10
2023-04-17T20:51:30.557Z,3.57
2023-04-17T20:54:32.611Z,6.63
2023-04-17T20:57:34.682Z,5.03
2023-04-17T21:00:40.139Z,3.83
2023-04-17T21:03:44.388Z,3.77
2023-04-17T21:06:46.422Z,3.90
2023-04-17T21:09:48.408Z,3.43
2023-04-17T21:12:50.927Z,4.83
2023-04-17T21:15:52.954Z,4.27
2023-04-17T21:18:54.916Z,4.03
2023-04-17T21:21:58.578Z,3.63
2023-04-17T21:25:00.608Z,5.23
2023-04-17T21:28:02.553Z,4.23
2023-04-17T21:31:08.792Z,4.27
2023-04-17T21:34:11.023Z,5.57
2023-04-17T21:37:13.665Z,4.93
2023-04-17T21:40:15.514Z,4.37
2023-04-17T21:43:17.530Z,4.00
2023-04-17T21:46:19.940Z,4.10
2023-04-17T21:49:23.133Z,6.07
2023-04-17T21:52:25.050Z,5.97
2023-04-17T21:55:27.794Z,5.10
2023-04-17T21:58:29.926Z,4.40
2023-04-17T22:01:31.945Z,3.53
2023-04-17T22:04:33.954Z,4.50
2023-04-17T22:07:47.373Z,7.90
2023-04-17T22:10:56.174Z,4.97
2023-04-17T22:13:58.182Z,5.20
2023-04-17T22:17:00.228Z,3.27
2023-04-17T22:20:02.434Z,3.93
2023-04-17T22:23:04.322Z,5.77
2023-04-17T22:26:06.316Z,4.33
2023-04-17T22:29:08.142Z,4.33
2023-04-17T22:32:10.124Z,4.90
2023-04-17T22:35:12.149Z,3.77
2023-04-17T22:38:14.128Z,4.70
2023-04-17T22:41:16.078Z,4.33
2023-04-17T22:44:18.110Z,4.37
2023-04-17T22:47:21.592Z,4.30
2023-04-17T22:50:24.151Z,4.30
2023-04-17T22:53:26.440Z,7.10
2023-04-17T22:56:29.480Z,5.43
2023-04-17T22:59:31.416Z,6.27
2023-04-17T23:02:33.548Z,4.47
2023-04-17T23:05:36.146Z,4.77
2023-04-17T23:08:38.414Z,5.40
2023-04-17T23:11:40.366Z,6.20
2023-04-17T23:14:44.146Z,5.00
2023-04-17T23:17:46.673Z,6.10
2023-04-17T23:20:48.762Z,6.60
2023-04-17T23:23:51.851Z,8.00
2023-04-17T23:26:55.674Z,5.20
2023-04-17T23:29:59.062Z,5.40
2023-04-17T23:33:01.727Z,5.03
2023-04-17T23:36:03.732Z,5.50
2023-04-17T23:39:06.191Z,5.33
2023-04-17T23:42:08.882Z,5.17
2023-04-17T23:45:11.287Z,4.33
2023-04-17T23:48:13.577Z,5.17
2023-04-17T23:51:15.584Z,5.73
2023-04-17T23:54:17.980Z,4.37
2023-04-17T23:57:20.223Z,7.17
